sensor_id;sensor_type;location;lat;lon;timestamp;P1;durP1;ratioP1;P2;durP2;ratioP2
49934;SDS011;39898;41.762;26.200;2024-01-30T00:01:28;15.40;;;8.02;;
49934;SDS011;39898;41.762;26.200;2024-01-30T00:03:55;15.57;;;6.70;;
49934;SDS011;39898;41.762;26.200;2024-01-30T00:06:21;10.98;;;5.90;;
49934;SDS011;39898;41.762;26.200;2024-01-30T00:08:48;9.33;;;4.77;;
49934;SDS011;39898;41.762;26.200;2024-01-30T00:11:15;18.13;;;8.43;;
49934;SDS011;39898;41.762;26.200;2024-01-30T00:13:42;17.25;;;7.40;;
49934;SDS011;39898;41.762;26.200;2024-01-30T00:16:08;25.17;;;8.15;;
49934;SDS011;39898;41.762;26.200;2024-01-30T00:18:45;19.58;;;9.48;;
49934;SDS011;39898;41.762;26.200;2024-01-30T00:21:12;21.13;;;9.27;;
49934;SDS011;39898;41.762;26.200;2024-01-30T00:23:39;16.05;;;7.45;;
49934;SDS011;39898;41.762;26.200;2024-01-30T00:26:05;18.50;;;9.25;;
49934;SDS011;39898;41.762;26.200;2024-01-30T00:28:32;26.42;;;8.85;;
49934;SDS011;39898;41.762;26.200;2024-01-30T00:30:59;17.48;;;7.60;;
49934;SDS011;39898;41.762;26.200;2024-01-30T00:33:25;12.75;;;6.38;;
49934;SDS011;39898;41.762;26.200;2024-01-30T00:35:52;17.25;;;7.53;;
49934;SDS011;39898;41.762;26.200;2024-01-30T00:38:19;15.52;;;6.47;;
49934;SDS011;39898;41.762;26.200;2024-01-30T00:40:45;17.27;;;8.07;;
49934;SDS011;39898;41.762;26.200;2024-01-30T00:43:12;12.18;;;5.43;;
49934;SDS011;39898;41.762;26.200;2024-01-30T00:45:38;10.38;;;5.40;;
49934;SDS011;39898;41.762;26.200;2024-01-30T00:48:05;19.90;;;7.25;;
49934;SDS011;39898;41.762;26.200;2024-01-30T00:50:32;10.10;;;4.97;;
49934;SDS011;39898;41.762;26.200;2024-01-30T00:52:58;15.82;;;7.22;;
49934;SDS011;39898;41.762;26.200;2024-01-30T00:55:25;19.00;;;7.75;;
49934;SDS011;39898;41.762;26.200;2024-01-30T00:57:52;9.82;;;4.32;;
49934;SDS011;39898;41.762;26.200;2024-01-30T01:00:18;16.48;;;7.20;;
49934;SDS011;39898;41.762;26.200;2024-01-30T01:02:47;17.17;;;6.75;;
49934;SDS011;39898;41.762;26.200;2024-01-30T01:05:13;15.52;;;7.15;;
49934;SDS011;39898;41.762;26.200;2024-01-30T01:07:40;15.30;;;8.05;;
49934;SDS011;39898;41.762;26.200;2024-01-30T01:10:09;10.52;;;4.25;;
49934;SDS011;39898;41.762;26.200;2024-01-30T01:12:37;14.43;;;6.53;;
49934;SDS011;39898;41.762;26.200;2024-01-30T01:15:04;15.32;;;6.43;;
49934;SDS011;39898;41.762;26.200;2024-01-30T01:17:31;15.65;;;5.35;;
49934;SDS011;39898;41.762;26.200;2024-01-30T01:19:58;13.55;;;5.93;;
49934;SDS011;39898;41.762;26.200;2024-01-30T01:22:25;12.97;;;6.50;;
49934;SDS011;39898;41.762;26.200;2024-01-30T01:24:51;14.55;;;6.50;;
49934;SDS011;39898;41.762;26.200;2024-01-30T01:27:18;13.95;;;7.10;;
49934;SDS011;39898;41.762;26.200;2024-01-30T01:29:45;16.95;;;6.82;;
49934;SDS011;39898;41.762;26.200;2024-01-30T01:32:11;14.40;;;5.63;;
49934;SDS011;39898;41.762;26.200;2024-01-30T01:34:38;21.60;;;8.65;;
49934;SDS011;39898;41.762;26.200;2024-01-30T01:37:05;13.48;;;6.15;;
49934;SDS011;39898;41.762;26.200;2024-01-30T01:39:32;18.08;;;8.10;;
49934;SDS011;39898;41.762;26.200;2024-01-30T01:41:58;18.65;;;7.57;;
49934;SDS011;39898;41.762;26.200;2024-01-30T01:44:25;22.23;;;8.50;;
49934;SDS011;39898;41.762;26.200;2024-01-30T01:46:51;20.27;;;7.32;;
49934;SDS011;39898;41.762;26.200;2024-01-30T01:49:18;14.25;;;6.38;;
49934;SDS011;39898;41.762;26.200;2024-01-30T01:51:46;30.13;;;11.02;;
49934;SDS011;39898;41.762;26.200;2024-01-30T01:54:14;15.10;;;7.10;;
49934;SDS011;39898;41.762;26.200;2024-01-30T01:56:40;14.77;;;5.75;;
49934;SDS011;39898;41.762;26.200;2024-01-30T02:01:38;13.80;;;6.53;;
49934;SDS011;39898;41.762;26.200;2024-01-30T02:04:05;13.02;;;6.88;;
49934;SDS011;39898;41.762;26.200;2024-01-30T02:06:32;17.08;;;7.50;;
49934;SDS011;39898;41.762;26.200;2024-01-30T02:08:58;14.93;;;7.07;;
49934;SDS011;39898;41.762;26.200;2024-01-30T02:11:25;12.75;;;6.88;;
49934;SDS011;39898;41.762;26.200;2024-01-30T02:13:52;15.95;;;6.00;;
49934;SDS011;39898;41.762;26.200;2024-01-30T02:16:18;15.45;;;7.90;;
49934;SDS011;39898;41.762;26.200;2024-01-30T02:18:45;18.33;;;6.55;;
49934;SDS011;39898;41.762;26.200;2024-01-30T02:21:17;15.63;;;6.10;;
49934;SDS011;39898;41.762;26.200;2024-01-30T02:23:44;14.25;;;6.93;;
49934;SDS011;39898;41.762;26.200;2024-01-30T02:26:11;15.83;;;5.40;;
49934;SDS011;39898;41.762;26.200;2024-01-30T02:28:38;20.70;;;7.75;;
49934;SDS011;39898;41.762;26.200;2024-01-30T02:31:05;11.93;;;4.90;;
49934;SDS011;39898;41.762;26.200;2024-01-30T02:33:32;15.02;;;6.05;;
49934;SDS011;39898;41.762;26.200;2024-01-30T02:35:58;9.77;;;4.55;;
49934;SDS011;39898;41.762;26.200;2024-01-30T02:38:25;9.10;;;4.40;;
49934;SDS011;39898;41.762;26.200;2024-01-30T02:40:53;10.82;;;4.88;;
49934;SDS011;39898;41.762;26.200;2024-01-30T02:43:19;10.55;;;3.63;;
49934;SDS011;39898;41.762;26.200;2024-01-30T02:45:46;8.80;;;4.88;;
49934;SDS011;39898;41.762;26.200;2024-01-30T02:48:13;14.75;;;6.90;;
49934;SDS011;39898;41.762;26.200;2024-01-30T02:50:39;13.93;;;5.63;;
49934;SDS011;39898;41.762;26.200;2024-01-30T02:53:06;15.55;;;6.82;;
49934;SDS011;39898;41.762;26.200;2024-01-30T02:55:33;13.73;;;6.72;;
49934;SDS011;39898;41.762;26.200;2024-01-30T02:57:59;8.75;;;4.72;;
49934;SDS011;39898;41.762;26.200;2024-01-30T03:00:26;11.32;;;5.05;;
49934;SDS011;39898;41.762;26.200;2024-01-30T03:02:52;16.88;;;7.68;;
49934;SDS011;39898;41.762;26.200;2024-01-30T03:05:19;14.02;;;6.05;;
49934;SDS011;39898;41.762;26.200;2024-01-30T03:07:46;7.82;;;3.63;;
49934;SDS011;39898;41.762;26.200;2024-01-30T03:10:12;17.80;;;4.80;;
49934;SDS011;39898;41.762;26.200;2024-01-30T03:12:39;7.55;;;3.60;;
49934;SDS011;39898;41.762;26.200;2024-01-30T03:15:06;8.45;;;4.57;;
49934;SDS011;39898;41.762;26.200;2024-01-30T03:17:32;14.77;;;6.28;;
49934;SDS011;39898;41.762;26.200;2024-01-30T03:19:59;9.85;;;4.57;;
49934;SDS011;39898;41.762;26.200;2024-01-30T03:22:26;21.60;;;7.13;;
49934;SDS011;39898;41.762;26.200;2024-01-30T03:24:53;13.27;;;6.57;;
49934;SDS011;39898;41.762;26.200;2024-01-30T03:27:19;19.17;;;7.20;;
49934;SDS011;39898;41.762;26.200;2024-01-30T03:29:46;16.38;;;6.55;;
49934;SDS011;39898;41.762;26.200;2024-01-30T03:32:13;10.13;;;4.93;;
49934;SDS011;39898;41.762;26.200;2024-01-30T03:34:39;16.45;;;6.57;;
49934;SDS011;39898;41.762;26.200;2024-01-30T03:37:06;10.25;;;4.80;;
49934;SDS011;39898;41.762;26.200;2024-01-30T03:39:33;10.52;;;5.10;;
49934;SDS011;39898;41.762;26.200;2024-01-30T03:41:59;10.57;;;5.47;;
49934;SDS011;39898;41.762;26.200;2024-01-30T03:44:26;15.77;;;7.60;;
49934;SDS011;39898;41.762;26.200;2024-01-30T03:46:52;13.63;;;6.65;;
49934;SDS011;39898;41.762;26.200;2024-01-30T03:49:19;18.65;;;8.23;;
49934;SDS011;39898;41.762;26.200;2024-01-30T03:51:46;8.82;;;5.35;;
49934;SDS011;39898;41.762;26.200;2024-01-30T03:54:14;19.77;;;7.85;;
49934;SDS011;39898;41.762;26.200;2024-01-30T03:56:40;22.45;;;7.28;;
49934;SDS011;39898;41.762;26.200;2024-01-30T03:59:07;16.05;;;7.43;;
49934;SDS011;39898;41.762;26.200;2024-01-30T04:01:33;22.27;;;8.38;;
49934;SDS011;39898;41.762;26.200;2024-01-30T04:04:00;16.48;;;7.07;;
49934;SDS011;39898;41.762;26.200;2024-01-30T04:06:27;21.13;;;8.55;;
49934;SDS011;39898;41.762;26.200;2024-01-30T04:08:54;29.50;;;14.30;;
49934;SDS011;39898;41.762;26.200;2024-01-30T04:11:20;17.27;;;8.40;;
49934;SDS011;39898;41.762;26.200;2024-01-30T04:13:47;14.02;;;6.40;;
49934;SDS011;39898;41.762;26.200;2024-01-30T04:16:21;20.17;;;10.02;;
49934;SDS011;39898;41.762;26.200;2024-01-30T04:18:51;11.15;;;5.13;;
49934;SDS011;39898;41.762;26.200;2024-01-30T04:21:18;15.10;;;7.33;;
49934;SDS011;39898;41.762;26.200;2024-01-30T04:23:44;14.38;;;6.20;;
49934;SDS011;39898;41.762;26.200;2024-01-30T04:26:11;19.65;;;7.78;;
49934;SDS011;39898;41.762;26.200;2024-01-30T04:28:37;26.95;;;8.77;;
49934;SDS011;39898;41.762;26.200;2024-01-30T04:31:04;14.43;;;6.70;;
49934;SDS011;39898;41.762;26.200;2024-01-30T04:33:30;21.77;;;9.23;;
49934;SDS011;39898;41.762;26.200;2024-01-30T04:35:57;14.10;;;6.63;;
49934;SDS011;39898;41.762;26.200;2024-01-30T04:38:24;23.52;;;7.53;;
49934;SDS011;39898;41.762;26.200;2024-01-30T04:40:50;22.35;;;8.68;;
49934;SDS011;39898;41.762;26.200;2024-01-30T04:43:17;20.50;;;8.63;;
49934;SDS011;39898;41.762;26.200;2024-01-30T04:45:43;20.90;;;9.60;;
49934;SDS011;39898;41.762;26.200;2024-01-30T04:48:10;19.75;;;9.20;;
49934;SDS011;39898;41.762;26.200;2024-01-30T04:50:37;23.85;;;8.45;;
49934;SDS011;39898;41.762;26.200;2024-01-30T04:53:03;24.63;;;9.93;;
49934;SDS011;39898;41.762;26.200;2024-01-30T04:55:30;20.05;;;8.57;;
49934;SDS011;39898;41.762;26.200;2024-01-30T04:57:56;15.98;;;7.72;;
49934;SDS011;39898;41.762;26.200;2024-01-30T05:00:23;20.20;;;8.38;;
49934;SDS011;39898;41.762;26.200;2024-01-30T05:02:50;22.15;;;10.40;;
49934;SDS011;39898;41.762;26.200;2024-01-30T05:05:16;21.92;;;9.50;;
49934;SDS011;39898;41.762;26.200;2024-01-30T05:07:43;19.77;;;8.75;;
49934;SDS011;39898;41.762;26.200;2024-01-30T05:10:09;16.95;;;8.02;;
49934;SDS011;39898;41.762;26.200;2024-01-30T05:12:36;20.17;;;9.15;;
49934;SDS011;39898;41.762;26.200;2024-01-30T05:15:03;24.17;;;10.68;;
49934;SDS011;39898;41.762;26.200;2024-01-30T05:17:29;24.67;;;9.98;;
49934;SDS011;39898;41.762;26.200;2024-01-30T05:19:56;21.73;;;9.63;;
49934;SDS011;39898;41.762;26.200;2024-01-30T05:22:23;23.25;;;10.52;;
49934;SDS011;39898;41.762;26.200;2024-01-30T05:24:49;20.15;;;8.35;;
49934;SDS011;39898;41.762;26.200;2024-01-30T05:27:16;27.27;;;10.10;;
49934;SDS011;39898;41.762;26.200;2024-01-30T05:29:42;32.53;;;10.75;;
49934;SDS011;39898;41.762;26.200;2024-01-30T05:32:09;25.25;;;11.35;;
49934;SDS011;39898;41.762;26.200;2024-01-30T05:34:37;43.92;;;19.23;;
49934;SDS011;39898;41.762;26.200;2024-01-30T05:37:03;36.90;;;14.63;;
49934;SDS011;39898;41.762;26.200;2024-01-30T05:39:30;35.67;;;15.13;;
49934;SDS011;39898;41.762;26.200;2024-01-30T05:41:59;40.53;;;16.58;;
49934;SDS011;39898;41.762;26.200;2024-01-30T05:44:26;51.97;;;18.35;;
49934;SDS011;39898;41.762;26.200;2024-01-30T05:46:52;42.75;;;15.77;;
49934;SDS011;39898;41.762;26.200;2024-01-30T05:49:19;32.95;;;14.30;;
49934;SDS011;39898;41.762;26.200;2024-01-30T05:51:46;28.48;;;13.20;;
49934;SDS011;39898;41.762;26.200;2024-01-30T05:54:13;52.47;;;18.55;;
49934;SDS011;39898;41.762;26.200;2024-01-30T05:56:43;82.72;;;24.75;;
49934;SDS011;39898;41.762;26.200;2024-01-30T05:59:09;42.58;;;15.10;;
49934;SDS011;39898;41.762;26.200;2024-01-30T06:01:36;38.45;;;15.75;;
49934;SDS011;39898;41.762;26.200;2024-01-30T06:04:03;65.15;;;20.67;;
49934;SDS011;39898;41.762;26.200;2024-01-30T06:06:30;40.58;;;15.45;;
49934;SDS011;39898;41.762;26.200;2024-01-30T06:08:56;55.72;;;17.13;;
49934;SDS011;39898;41.762;26.200;2024-01-30T06:11:23;46.75;;;18.33;;
49934;SDS011;39898;41.762;26.200;2024-01-30T06:13:49;36.40;;;14.95;;
49934;SDS011;39898;41.762;26.200;2024-01-30T06:16:16;31.10;;;13.50;;
49934;SDS011;39898;41.762;26.200;2024-01-30T06:18:42;27.67;;;11.95;;
49934;SDS011;39898;41.762;26.200;2024-01-30T06:21:09;26.13;;;12.05;;
49934;SDS011;39898;41.762;26.200;2024-01-30T06:23:38;25.63;;;11.57;;
49934;SDS011;39898;41.762;26.200;2024-01-30T06:26:06;33.75;;;12.68;;
49934;SDS011;39898;41.762;26.200;2024-01-30T06:28:32;45.03;;;17.98;;
49934;SDS011;39898;41.762;26.200;2024-01-30T06:31:00;34.25;;;13.18;;
49934;SDS011;39898;41.762;26.200;2024-01-30T06:33:27;24.20;;;9.38;;
49934;SDS011;39898;41.762;26.200;2024-01-30T06:35:54;23.27;;;11.05;;
49934;SDS011;39898;41.762;26.200;2024-01-30T06:38:20;25.48;;;11.70;;
49934;SDS011;39898;41.762;26.200;2024-01-30T06:40:47;22.33;;;12.30;;
49934;SDS011;39898;41.762;26.200;2024-01-30T06:43:13;26.65;;;12.52;;
49934;SDS011;39898;41.762;26.200;2024-01-30T06:45:40;31.88;;;12.18;;
49934;SDS011;39898;41.762;26.200;2024-01-30T06:48:07;31.60;;;13.97;;
49934;SDS011;39898;41.762;26.200;2024-01-30T06:50:34;25.80;;;11.73;;
49934;SDS011;39898;41.762;26.200;2024-01-30T06:53:00;24.65;;;12.45;;
49934;SDS011;39898;41.762;26.200;2024-01-30T06:55:27;20.63;;;9.95;;
49934;SDS011;39898;41.762;26.200;2024-01-30T06:57:54;28.48;;;14.50;;
49934;SDS011;39898;41.762;26.200;2024-01-30T07:00:20;19.80;;;9.43;;
49934;SDS011;39898;41.762;26.200;2024-01-30T07:02:47;22.77;;;10.73;;
49934;SDS011;39898;41.762;26.200;2024-01-30T07:05:14;33.58;;;16.85;;
49934;SDS011;39898;41.762;26.200;2024-01-30T07:07:41;29.48;;;14.63;;
49934;SDS011;39898;41.762;26.200;2024-01-30T07:10:08;23.60;;;11.95;;
49934;SDS011;39898;41.762;26.200;2024-01-30T07:12:35;26.73;;;10.68;;
49934;SDS011;39898;41.762;26.200;2024-01-30T07:15:02;21.67;;;9.77;;
49934;SDS011;39898;41.762;26.200;2024-01-30T07:17:29;14.43;;;7.60;;
49934;SDS011;39898;41.762;26.200;2024-01-30T07:19:56;20.80;;;8.77;;
49934;SDS011;39898;41.762;26.200;2024-01-30T07:22:23;16.63;;;8.70;;
49934;SDS011;39898;41.762;26.200;2024-01-30T07:24:49;36.22;;;17.77;;
49934;SDS011;39898;41.762;26.200;2024-01-30T07:27:18;48.42;;;20.90;;
49934;SDS011;39898;41.762;26.200;2024-01-30T07:29:44;42.92;;;20.52;;
49934;SDS011;39898;41.762;26.200;2024-01-30T07:32:11;21.80;;;10.30;;
49934;SDS011;39898;41.762;26.200;2024-01-30T07:34:38;22.35;;;9.73;;
49934;SDS011;39898;41.762;26.200;2024-01-30T07:37:18;18.50;;;7.82;;
49934;SDS011;39898;41.762;26.200;2024-01-30T07:39:45;14.93;;;7.97;;
49934;SDS011;39898;41.762;26.200;2024-01-30T07:42:12;14.55;;;7.32;;
49934;SDS011;39898;41.762;26.200;2024-01-30T07:44:39;11.57;;;5.68;;
49934;SDS011;39898;41.762;26.200;2024-01-30T07:47:05;18.35;;;8.27;;
49934;SDS011;39898;41.762;26.200;2024-01-30T07:49:32;18.92;;;9.48;;
49934;SDS011;39898;41.762;26.200;2024-01-30T07:52:05;10.85;;;4.18;;
49934;SDS011;39898;41.762;26.200;2024-01-30T07:54:33;13.18;;;6.68;;
49934;SDS011;39898;41.762;26.200;2024-01-30T07:57:00;13.02;;;6.93;;
49934;SDS011;39898;41.762;26.200;2024-01-30T07:59:27;18.30;;;7.47;;
49934;SDS011;39898;41.762;26.200;2024-01-30T08:01:53;10.07;;;5.05;;
49934;SDS011;39898;41.762;26.200;2024-01-30T08:04:20;15.02;;;7.95;;
49934;SDS011;39898;41.762;26.200;2024-01-30T08:06:47;30.08;;;13.88;;
49934;SDS011;39898;41.762;26.200;2024-01-30T08:09:14;113.53;;;33.10;;
49934;SDS011;39898;41.762;26.200;2024-01-30T08:11:41;57.58;;;22.73;;
49934;SDS011;39898;41.762;26.200;2024-01-30T08:14:07;17.05;;;7.88;;
49934;SDS011;39898;41.762;26.200;2024-01-30T08:16:34;7.03;;;4.20;;
49934;SDS011;39898;41.762;26.200;2024-01-30T08:19:01;12.85;;;5.95;;
49934;SDS011;39898;41.762;26.200;2024-01-30T08:21:27;19.23;;;8.88;;
49934;SDS011;39898;41.762;26.200;2024-01-30T08:23:54;15.93;;;7.63;;
49934;SDS011;39898;41.762;26.200;2024-01-30T08:26:21;17.45;;;6.97;;
49934;SDS011;39898;41.762;26.200;2024-01-30T08:28:48;18.73;;;8.90;;
49934;SDS011;39898;41.762;26.200;2024-01-30T08:31:14;16.25;;;7.78;;
49934;SDS011;39898;41.762;26.200;2024-01-30T08:33:41;16.33;;;7.32;;
49934;SDS011;39898;41.762;26.200;2024-01-30T08:36:09;18.42;;;6.78;;
49934;SDS011;39898;41.762;26.200;2024-01-30T08:38:36;17.23;;;7.35;;
49934;SDS011;39898;41.762;26.200;2024-01-30T08:41:02;15.02;;;6.60;;
49934;SDS011;39898;41.762;26.200;2024-01-30T08:43:29;10.98;;;5.30;;
49934;SDS011;39898;41.762;26.200;2024-01-30T08:45:58;20.17;;;9.25;;
49934;SDS011;39898;41.762;26.200;2024-01-30T08:48:26;12.88;;;6.13;;
49934;SDS011;39898;41.762;26.200;2024-01-30T08:50:53;20.43;;;7.77;;
49934;SDS011;39898;41.762;26.200;2024-01-30T08:53:19;15.77;;;7.75;;
49934;SDS011;39898;41.762;26.200;2024-01-30T08:55:46;20.85;;;8.98;;
49934;SDS011;39898;41.762;26.200;2024-01-30T08:58:12;20.83;;;9.57;;
49934;SDS011;39898;41.762;26.200;2024-01-30T09:00:39;19.55;;;9.73;;
49934;SDS011;39898;41.762;26.200;2024-01-30T09:03:06;18.60;;;8.20;;
49934;SDS011;39898;41.762;26.200;2024-01-30T09:05:32;20.85;;;9.13;;
49934;SDS011;39898;41.762;26.200;2024-01-30T09:07:59;13.55;;;6.63;;
49934;SDS011;39898;41.762;26.200;2024-01-30T09:10:26;13.02;;;6.28;;
49934;SDS011;39898;41.762;26.200;2024-01-30T09:12:53;19.77;;;8.77;;
49934;SDS011;39898;41.762;26.200;2024-01-30T09:15:20;14.35;;;6.47;;
49934;SDS011;39898;41.762;26.200;2024-01-30T09:17:50;19.73;;;8.40;;
49934;SDS011;39898;41.762;26.200;2024-01-30T09:20:18;14.35;;;6.88;;
49934;SDS011;39898;41.762;26.200;2024-01-30T09:22:46;15.27;;;7.28;;
49934;SDS011;39898;41.762;26.200;2024-01-30T09:25:13;14.25;;;6.57;;
49934;SDS011;39898;41.762;26.200;2024-01-30T09:27:40;15.40;;;7.50;;
49934;SDS011;39898;41.762;26.200;2024-01-30T09:30:06;11.82;;;6.03;;
49934;SDS011;39898;41.762;26.200;2024-01-30T09:32:33;10.30;;;4.33;;
49934;SDS011;39898;41.762;26.200;2024-01-30T09:35:00;23.10;;;11.32;;
49934;SDS011;39898;41.762;26.200;2024-01-30T09:37:27;12.70;;;6.35;;
49934;SDS011;39898;41.762;26.200;2024-01-30T09:39:53;13.57;;;6.50;;
49934;SDS011;39898;41.762;26.200;2024-01-30T09:42:35;13.15;;;5.95;;
49934;SDS011;39898;41.762;26.200;2024-01-30T09:45:03;12.63;;;7.00;;
49934;SDS011;39898;41.762;26.200;2024-01-30T09:47:39;10.68;;;5.68;;
49934;SDS011;39898;41.762;26.200;2024-01-30T09:50:07;10.48;;;5.43;;
49934;SDS011;39898;41.762;26.200;2024-01-30T09:52:34;14.50;;;6.03;;
49934;SDS011;39898;41.762;26.200;2024-01-30T09:55:01;11.20;;;6.20;;
49934;SDS011;39898;41.762;26.200;2024-01-30T09:57:28;16.73;;;6.15;;
49934;SDS011;39898;41.762;26.200;2024-01-30T09:59:55;11.63;;;5.43;;
49934;SDS011;39898;41.762;26.200;2024-01-30T10:02:22;10.52;;;4.63;;
49934;SDS011;39898;41.762;26.200;2024-01-30T10:04:50;10.55;;;6.18;;
49934;SDS011;39898;41.762;26.200;2024-01-30T10:07:17;13.52;;;6.30;;
49934;SDS011;39898;41.762;26.200;2024-01-30T10:09:44;10.60;;;5.38;;
49934;SDS011;39898;41.762;26.200;2024-01-30T10:12:11;13.20;;;5.22;;
49934;SDS011;39898;41.762;26.200;2024-01-30T10:14:41;7.13;;;4.03;;
49934;SDS011;39898;41.762;26.200;2024-01-30T10:17:11;19.63;;;9.57;;
49934;SDS011;39898;41.762;26.200;2024-01-30T10:19:50;14.82;;;7.13;;
49934;SDS011;39898;41.762;26.200;2024-01-30T10:24:44;33.20;;;10.85;;
49934;SDS011;39898;41.762;26.200;2024-01-30T10:27:11;22.08;;;10.07;;
49934;SDS011;39898;41.762;26.200;2024-01-30T10:29:38;29.17;;;11.77;;
49934;SDS011;39898;41.762;26.200;2024-01-30T10:32:05;17.33;;;6.47;;
49934;SDS011;39898;41.762;26.200;2024-01-30T10:34:32;14.07;;;5.77;;
49934;SDS011;39898;41.762;26.200;2024-01-30T10:39:28;19.35;;;6.60;;
49934;SDS011;39898;41.762;26.200;2024-01-30T10:41:56;17.33;;;7.53;;
49934;SDS011;39898;41.762;26.200;2024-01-30T10:44:23;14.00;;;6.95;;
49934;SDS011;39898;41.762;26.200;2024-01-30T10:46:51;20.05;;;8.95;;
49934;SDS011;39898;41.762;26.200;2024-01-30T10:49:21;16.65;;;8.38;;
49934;SDS011;39898;41.762;26.200;2024-01-30T10:51:48;23.60;;;11.97;;
49934;SDS011;39898;41.762;26.200;2024-01-30T10:54:15;15.48;;;7.80;;
49934;SDS011;39898;41.762;26.200;2024-01-30T10:56:44;24.55;;;11.10;;
49934;SDS011;39898;41.762;26.200;2024-01-30T10:59:10;26.92;;;11.35;;
49934;SDS011;39898;41.762;26.200;2024-01-30T11:01:40;26.42;;;11.98;;
49934;SDS011;39898;41.762;26.200;2024-01-30T11:04:07;16.70;;;8.30;;
49934;SDS011;39898;41.762;26.200;2024-01-30T11:06:40;15.02;;;6.57;;
49934;SDS011;39898;41.762;26.200;2024-01-30T11:09:10;18.95;;;5.85;;
49934;SDS011;39898;41.762;26.200;2024-01-30T11:11:51;27.02;;;9.05;;
49934;SDS011;39898;41.762;26.200;2024-01-30T11:14:24;15.40;;;7.30;;
49934;SDS011;39898;41.762;26.200;2024-01-30T11:16:52;12.35;;;6.22;;
49934;SDS011;39898;41.762;26.200;2024-01-30T11:19:25;17.80;;;6.85;;
49934;SDS011;39898;41.762;26.200;2024-01-30T11:21:55;16.63;;;7.15;;
49934;SDS011;39898;41.762;26.200;2024-01-30T11:24:24;30.45;;;9.35;;
49934;SDS011;39898;41.762;26.200;2024-01-30T11:26:57;22.35;;;8.27;;
49934;SDS011;39898;41.762;26.200;2024-01-30T11:29:25;22.20;;;6.75;;
49934;SDS011;39898;41.762;26.200;2024-01-30T11:31:55;17.37;;;7.53;;
49934;SDS011;39898;41.762;26.200;2024-01-30T11:34:21;17.10;;;6.63;;
49934;SDS011;39898;41.762;26.200;2024-01-30T11:36:53;17.42;;;8.15;;
49934;SDS011;39898;41.762;26.200;2024-01-30T11:39:25;21.67;;;7.57;;
49934;SDS011;39898;41.762;26.200;2024-01-30T11:41:52;14.13;;;5.78;;
49934;SDS011;39898;41.762;26.200;2024-01-30T11:44:19;17.58;;;7.72;;
49934;SDS011;39898;41.762;26.200;2024-01-30T11:46:47;17.98;;;5.72;;
49934;SDS011;39898;41.762;26.200;2024-01-30T11:49:14;21.25;;;6.95;;
49934;SDS011;39898;41.762;26.200;2024-01-30T11:51:41;14.55;;;6.57;;
49934;SDS011;39898;41.762;26.200;2024-01-30T11:54:07;13.65;;;5.53;;
49934;SDS011;39898;41.762;26.200;2024-01-30T11:56:36;12.98;;;5.20;;
49934;SDS011;39898;41.762;26.200;2024-01-30T12:01:29;10.77;;;5.38;;
49934;SDS011;39898;41.762;26.200;2024-01-30T12:03:59;14.82;;;6.82;;
49934;SDS011;39898;41.762;26.200;2024-01-30T12:06:26;13.63;;;6.13;;
49934;SDS011;39898;41.762;26.200;2024-01-30T12:08:59;20.40;;;7.57;;
49934;SDS011;39898;41.762;26.200;2024-01-30T12:11:26;10.32;;;5.43;;
49934;SDS011;39898;41.762;26.200;2024-01-30T12:13:54;13.15;;;6.10;;
49934;SDS011;39898;41.762;26.200;2024-01-30T12:16:20;13.05;;;6.18;;
49934;SDS011;39898;41.762;26.200;2024-01-30T12:18:47;13.48;;;6.63;;
49934;SDS011;39898;41.762;26.200;2024-01-30T12:21:17;11.23;;;4.93;;
49934;SDS011;39898;41.762;26.200;2024-01-30T12:23:44;13.23;;;6.05;;
49934;SDS011;39898;41.762;26.200;2024-01-30T12:26:11;10.75;;;5.45;;
49934;SDS011;39898;41.762;26.200;2024-01-30T12:28:47;11.98;;;5.65;;
49934;SDS011;39898;41.762;26.200;2024-01-30T12:31:13;15.60;;;7.97;;
49934;SDS011;39898;41.762;26.200;2024-01-30T12:33:40;20.67;;;8.02;;
49934;SDS011;39898;41.762;26.200;2024-01-30T12:36:07;16.35;;;7.32;;
49934;SDS011;39898;41.762;26.200;2024-01-30T12:38:34;18.02;;;7.30;;
49934;SDS011;39898;41.762;26.200;2024-01-30T12:41:00;11.80;;;6.20;;
49934;SDS011;39898;41.762;26.200;2024-01-30T12:43:27;16.55;;;6.93;;
49934;SDS011;39898;41.762;26.200;2024-01-30T12:46:04;14.73;;;7.97;;
49934;SDS011;39898;41.762;26.200;2024-01-30T12:48:31;8.32;;;4.72;;
49934;SDS011;39898;41.762;26.200;2024-01-30T12:50:58;24.85;;;9.13;;
49934;SDS011;39898;41.762;26.200;2024-01-30T12:53:25;17.27;;;7.72;;
49934;SDS011;39898;41.762;26.200;2024-01-30T12:55:51;20.23;;;9.90;;
49934;SDS011;39898;41.762;26.200;2024-01-30T12:58:19;14.40;;;6.65;;
49934;SDS011;39898;41.762;26.200;2024-01-30T13:00:46;18.65;;;8.32;;
49934;SDS011;39898;41.762;26.200;2024-01-30T13:03:13;24.52;;;9.70;;
49934;SDS011;39898;41.762;26.200;2024-01-30T13:05:40;5.72;;;3.40;;
49934;SDS011;39898;41.762;26.200;2024-01-30T13:08:06;9.10;;;4.90;;
49934;SDS011;39898;41.762;26.200;2024-01-30T13:10:33;10.70;;;5.60;;
49934;SDS011;39898;41.762;26.200;2024-01-30T13:13:00;13.02;;;7.32;;
49934;SDS011;39898;41.762;26.200;2024-01-30T13:15:26;5.85;;;3.97;;
49934;SDS011;39898;41.762;26.200;2024-01-30T13:17:53;16.92;;;6.22;;
49934;SDS011;39898;41.762;26.200;2024-01-30T13:20:21;13.95;;;6.22;;
49934;SDS011;39898;41.762;26.200;2024-01-30T13:22:48;12.52;;;5.93;;
49934;SDS011;39898;41.762;26.200;2024-01-30T13:25:17;14.40;;;6.80;;
49934;SDS011;39898;41.762;26.200;2024-01-30T13:27:44;8.90;;;4.55;;
49934;SDS011;39898;41.762;26.200;2024-01-30T13:30:11;11.18;;;5.07;;
49934;SDS011;39898;41.762;26.200;2024-01-30T13:32:37;13.30;;;5.80;;
49934;SDS011;39898;41.762;26.200;2024-01-30T13:35:04;20.52;;;6.38;;
49934;SDS011;39898;41.762;26.200;2024-01-30T13:39:59;8.80;;;4.85;;
49934;SDS011;39898;41.762;26.200;2024-01-30T13:42:28;9.07;;;4.32;;
49934;SDS011;39898;41.762;26.200;2024-01-30T13:44:55;9.05;;;4.38;;
49934;SDS011;39898;41.762;26.200;2024-01-30T13:47:22;9.82;;;5.43;;
49934;SDS011;39898;41.762;26.200;2024-01-30T13:49:49;14.75;;;5.80;;
49934;SDS011;39898;41.762;26.200;2024-01-30T13:52:16;18.13;;;5.88;;
49934;SDS011;39898;41.762;26.200;2024-01-30T13:54:44;11.57;;;6.03;;
49934;SDS011;39898;41.762;26.200;2024-01-30T13:57:10;12.55;;;5.68;;
49934;SDS011;39898;41.762;26.200;2024-01-30T13:59:37;22.15;;;7.53;;
49934;SDS011;39898;41.762;26.200;2024-01-30T14:02:04;17.20;;;7.83;;
49934;SDS011;39898;41.762;26.200;2024-01-30T14:04:32;22.75;;;9.30;;
49934;SDS011;39898;41.762;26.200;2024-01-30T14:06:59;21.75;;;7.50;;
49934;SDS011;39898;41.762;26.200;2024-01-30T14:09:30;16.80;;;7.35;;
49934;SDS011;39898;41.762;26.200;2024-01-30T14:11:58;25.77;;;8.43;;
49934;SDS011;39898;41.762;26.200;2024-01-30T14:14:25;14.45;;;6.72;;
49934;SDS011;39898;41.762;26.200;2024-01-30T14:16:52;13.48;;;6.15;;
49934;SDS011;39898;41.762;26.200;2024-01-30T14:19:18;17.90;;;7.95;;
49934;SDS011;39898;41.762;26.200;2024-01-30T14:21:45;34.30;;;13.15;;
49934;SDS011;39898;41.762;26.200;2024-01-30T14:24:12;21.42;;;9.13;;
49934;SDS011;39898;41.762;26.200;2024-01-30T14:26:38;24.58;;;10.65;;
49934;SDS011;39898;41.762;26.200;2024-01-30T14:29:05;14.60;;;6.50;;
49934;SDS011;39898;41.762;26.200;2024-01-30T14:31:31;31.92;;;10.35;;
49934;SDS011;39898;41.762;26.200;2024-01-30T14:33:58;29.48;;;9.93;;